Time;durP1;ratioP1;P1;durP2;ratioP2;P2;SDS_P1;SDS_P2;PMS_P1;PMS_P2;Temp;Humidity;BMP_temperature;BMP_pressure;BME280_temperature;BME280_humidity;BME280_pressure;Samples;Min_cycle;Max_cycle;Signal;HPM_P1;HPM_P2
2022/11/09 00:01:47;;;;;;;22.92;14.20;;;;;;;9.11;73.53;100020.91;30626946;28;96653;-60
2022/11/09 00:16:47;;;;;;;24.00;13.95;;;;;;;9.09;73.75;99999.00;30625650;28;96622;-60
2022/11/09 00:31:49;;;;;;;25.25;14.63;;;;;;;9.00;73.88;100009.78;30623840;28;96831;-60
2022/11/09 00:46:49;;;;;;;21.93;14.47;;;;;;;9.00;73.76;99989.34;30621947;28;98575;-60
2022/11/09 01:01:51;;;;;;;25.37;14.07;;;;;;;8.85;74.35;99993.66;30620808;28;97320;-63
2022/11/09 01:16:51;;;;;;;29.48;15.48;;;;;;;8.77;74.16;99989.16;30619988;28;96634;-61
2022/11/09 01:31:54;;;;;;;28.63;15.93;;;;;;;8.60;74.43;99986.47;30618141;28;97233;-62
2022/11/09 01:47:09;;;;;;;30.63;15.37;;;;;;;8.48;74.91;99976.31;30616432;28;96765;-60
2022/11/09 02:02:10;;;;;;;24.73;14.30;;;;;;;8.37;74.46;99972.94;30615040;28;96629;-60
2022/11/09 02:17:11;;;;;;;31.75;15.95;;;;;;;8.17;75.09;99960.91;30614685;28;96757;-62
2022/11/09 02:32:24;;;;;;;26.70;15.70;;;;;;;8.04;74.65;99966.69;30612725;28;96725;-61
2022/11/09 02:47:25;;;;;;;32.70;17.70;;;;;;;7.82;74.17;99976.00;30611620;28;97412;-62
2022/11/09 03:02:26;;;;;;;31.08;16.27;;;;;;;7.69;74.58;99966.66;30610966;28;96988;-60
2022/11/09 03:17:27;;;;;;;30.75;17.38;;;;;;;7.43;74.20;99975.44;30620699;28;97174;-60
2022/11/09 03:32:27;;;;;;;31.73;16.93;;;;;;;7.15;75.30;99981.84;30629243;28;97829;-61
2022/11/09 03:47:27;;;;;;;28.70;16.88;;;;;;;6.80;75.51;99988.84;30625922;28;98307;-60
2022/11/09 04:02:28;;;;;;;30.42;17.17;;;;;;;6.73;75.57;99968.25;30624871;28;96591;-63
2022/11/09 04:17:28;;;;;;;29.88;16.42;;;;;;;6.64;76.46;99963.84;30622839;28;97383;-60
2022/11/09 04:32:28;;;;;;;30.90;17.92;;;;;;;6.54;76.23;99973.69;30621832;28;96610;-60
2022/11/09 04:47:29;;;;;;;35.70;17.30;;;;;;;6.44;76.79;99961.34;30619430;28;97106;-60
2022/11/09 05:02:29;;;;;;;34.90;18.35;;;;;;;6.33;76.61;99934.25;30617391;28;96706;-60
2022/11/09 05:17:30;;;;;;;34.13;16.55;;;;;;;6.08;76.88;99953.34;30616475;28;96864;-61
2022/11/09 05:32:30;;;;;;;38.90;19.63;;;;;;;6.23;77.76;99935.16;30613228;28;97585;-61
2022/11/09 05:47:36;;;;;;;35.03;19.23;;;;;;;6.57;78.47;99953.03;30611549;28;96846;-61
2022/11/09 06:02:36;;;;;;;38.95;20.60;;;;;;;6.77;78.44;99953.72;30623336;28;96954;-61
2022/11/09 06:17:36;;;;;;;38.40;20.38;;;;;;;6.71;77.86;99967.56;30608346;28;96703;-59
2022/11/09 06:32:37;;;;;;;32.88;18.38;;;;;;;6.70;77.67;99970.38;30607347;28;97171;-57
2022/11/09 06:47:37;;;;;;;37.60;19.58;;;;;;;6.79;78.03;99982.69;30609283;28;97203;-58
2022/11/09 07:02:37;;;;;;;40.70;18.95;;;;;;;7.15;77.89;99973.91;30625430;28;97052;-60
2022/11/09 07:17:39;;;;;;;35.95;20.60;;;;;;;7.83;78.05;99969.72;30624355;28;97202;-60
2022/11/09 07:32:39;;;;;;;38.63;19.40;;;;;;;9.00;77.56;99977.91;30623895;28;96929;-58
2022/11/09 07:47:40;;;;;;;39.78;19.83;;;;;;;10.54;76.93;100000.00;30621234;28;97770;-57
2022/11/09 08:02:40;;;;;;;28.05;16.35;;;;;;;12.84;74.79;99971.00;30648777;28;96822;-61
2022/11/09 08:17:41;;;;;;;32.03;14.57;;;;;;;14.43;70.20;99992.09;30736928;28;96866;-60
2022/11/09 08:32:42;;;;;;;25.15;14.45;;;;;;;20.73;61.86;99982.81;30729519;28;97129;-61
2022/11/09 08:47:43;;;;;;;22.40;13.50;;;;;;;18.92;54.89;99980.69;30738583;28;96699;-60
2022/11/09 09:02:44;;;;;;;19.80;12.73;;;;;;;17.95;54.44;99986.06;30722484;28;96885;-61
2022/11/09 09:17:44;;;;;;;23.73;14.25;;;;;;;19.02;52.04;100003.63;30605283;28;97237;-60
2022/11/09 09:32:45;;;;;;;18.52;11.93;;;;;;;17.50;52.70;99989.78;30607937;28;96870;-60
2022/11/09 09:47:54;;;;;;;20.52;12.23;;;;;;;17.00;52.00;99996.78;30602057;28;97143;-60
2022/11/09 10:02:54;;;;;;;15.43;10.90;;;;;;;15.55;52.99;99990.66;30598368;28;97252;-59
2022/11/09 10:18:47;;;;;;;16.77;9.70;;;;;;;14.73;53.88;99992.63;30611227;28;97100;-61
2022/11/09 10:34:11;;;;;;;;;;;;;;;21.41;47.11;99990.19;30587648;28;96787;-61
2022/11/09 10:49:20;;;;;;;16.40;10.27;;;;;;;22.97;36.43;100003.56;30605626;28;97381;-61
2022/11/09 11:04:24;;;;;;;17.30;10.43;;;;;;;19.37;42.19;99981.22;30594164;28;97132;-61
2022/11/09 11:19:34;;;;;;;15.30;9.60;;;;;;;22.04;36.12;99977.28;30605443;28;97379;-62
2022/11/09 11:34:36;;;;;;;17.70;10.67;;;;;;;21.02;37.40;99973.84;30610312;28;96739;-63
2022/11/09 11:49:52;;;;;;;23.63;12.27;;;;;;;18.02;42.76;100003.81;30625460;28;97452;-63
2022/11/09 12:05:31;;;;;;;18.10;10.50;;;;;;;25.03;37.19;99990.31;30623032;28;96711;-62
2022/11/09 12:20:40;;;;;;;15.67;9.87;;;;;;;31.98;26.46;99988.41;30620797;28;97411;-63
2022/11/09 12:35:49;;;;;;;19.13;12.17;;;;;;;32.87;23.15;99977.22;30620271;28;97377;-64
2022/11/09 12:50:51;;;;;;;18.03;13.07;;;;;;;30.78;23.89;99972.47;30617164;28;96696;-64
2022/11/09 13:06:10;;;;;;;16.40;12.30;;;;;;;32.27;22.85;99976.03;30617633;28;96702;-64
2022/11/09 13:21:32;;;;;;;14.90;11.70;;;;;;;31.59;21.85;99967.19;30613924;28;96703;-65
2022/11/09 13:36:33;;;;;;;15.83;11.33;;;;;;;28.03;26.69;99976.72;30613051;28;97371;-63
2022/11/09 13:51:45;;;;;;;19.08;12.63;;;;;;;24.28;28.88;99979.75;30602500;28;96710;-64
2022/11/09 14:06:45;;;;;;;18.33;13.00;;;;;;;19.67;34.05;99986.56;30605296;28;97062;-63
2022/11/09 14:21:49;;;;;;;25.20;14.55;;;;;;;17.82;37.94;99992.38;30604057;28;98477;-63
2022/11/09 14:36:50;;;;;;;24.63;13.23;;;;;;;15.30;43.53;99995.00;30693683;28;97025;-63
2022/11/09 14:51:51;;;;;;;22.00;13.43;;;;;;;13.67;47.65;99973.19;30713121;28;96918;-70
2022/11/09 15:07:03;;;;;;;27.95;15.27;;;;;;;12.52;51.92;99997.19;30602659;28;97039;-59
2022/11/09 15:22:04;;;;;;;31.17;14.70;;;;;;;11.36;55.98;100015.47;30625767;28;97166;-58
2022/11/09 15:37:29;;;;;;;28.07;17.23;;;;;;;10.97;58.45;99992.41;30624044;28;97066;-60
2022/11/09 15:52:29;;;;;;;30.10;15.30;;;;;;;10.64;59.95;99998.78;30661408;28;96717;-58
2022/11/09 16:07:30;;;;;;;31.65;16.45;;;;;;;10.36;61.03;99982.47;30741997;28;97124;-58
2022/11/09 16:22:34;;;;;;;30.73;16.38;;;;;;;10.19;61.71;99986.19;30740348;28;97440;-57
2022/11/09 16:37:37;;;;;;;33.70;16.77;;;;;;;9.97;62.36;100007.19;30738591;28;96717;-58
2022/11/09 16:52:38;;;;;;;28.27;16.10;;;;;;;9.69;63.57;100020.91;30737569;28;96729;-61
2022/11/09 17:07:39;;;;;;;30.00;16.88;;;;;;;9.50;64.56;100027.41;30738234;28;97051;-59
2022/11/09 17:22:39;;;;;;;31.83;18.73;;;;;;;9.31;64.93;100028.56;30734531;28;96791;-60
2022/11/09 17:37:40;;;;;;;45.03;21.35;;;;;;;9.19;66.00;100045.84;30731636;28;97437;-59
2022/11/09 17:52:40;;;;;;;38.60;20.60;;;;;;;8.92;66.37;100045.94;30731655;28;97825;-60
2022/11/09 18:07:41;;;;;;;37.85;21.45;;;;;;;8.85;66.85;100057.41;30731509;28;96788;-59
2022/11/09 18:22:41;;;;;;;42.38;22.48;;;;;;;8.79;67.24;100051.75;30631815;28;98265;-70
2022/11/09 18:37:44;;;;;;;56.75;27.02;;;;;;;8.54;67.59;100068.59;30593570;28;98614;-58
2022/11/09 18:52:44;;;;;;;58.70;27.27;;;;;;;8.37;68.05;100072.97;30629691;28;97563;-59
2022/11/09 19:07:45;;;;;;;56.97;31.25;;;;;;;8.33;68.30;100087.56;30636581;28;96781;-59
2022/11/09 19:22:47;;;;;;;61.87;30.07;;;;;;;8.28;69.11;100090.66;30634559;28;96869;-59
2022/11/09 19:37:47;;;;;;;56.07;29.63;;;;;;;8.06;69.50;100084.06;30634170;28;97163;-59
2022/11/09 19:52:47;;;;;;;75.75;35.72;;;;;;;7.96;69.66;100102.75;30633061;28;97226;-60
2022/11/09 20:07:48;;;;;;;68.47;31.80;;;;;;;8.01;69.72;100104.94;30612799;28;97374;-59
2022/11/09 20:22:48;;;;;;;62.72;32.30;;;;;;;7.93;70.76;100124.28;30612306;28;97156;-58
2022/11/09 20:37:49;;;;;;;52.75;28.00;;;;;;;8.08;70.67;100121.91;30610642;28;97921;-60
2022/11/09 20:52:50;;;;;;;56.03;29.33;;;;;;;7.95;70.24;100125.81;30608642;28;97236;-58
2022/11/09 21:07:50;;;;;;;63.95;30.92;;;;;;;7.63;70.92;100137.78;30608084;28;96877;-59
2022/11/09 21:38:10;;;;;;;46.13;23.33;;;;;;;8.04;72.17;100155.88;30616526;28;97789;-59
2022/11/09 21:53:11;;;;;;;35.00;18.02;;;;;;;8.38;72.44;100157.75;30613329;28;96724;-61
2022/11/09 22:08:11;;;;;;;38.72;20.63;;;;;;;8.60;72.30;100145.78;30612291;28;96609;-58
2022/11/09 22:23:12;;;;;;;30.58;15.43;;;;;;;8.87;72.29;100159.00;30612216;28;96958;-59
2022/11/09 22:38:12;;;;;;;25.02;14.23;;;;;;;9.28;72.25;100152.00;30611567;28;96646;-59
2022/11/09 22:53:12;;;;;;;27.13;13.73;;;;;;;9.68;71.77;100186.81;30611985;28;96600;-59
2022/11/09 23:08:13;;;;;;;23.77;12.27;;;;;;;9.89;71.57;100198.81;30611016;28;96600;-60
2022/11/09 23:23:13;;;;;;;24.85;15.00;;;;;;;10.06;71.31;100197.81;30609429;28;97002;-62
2022/11/09 23:38:14;;;;;;;27.55;15.25;;;;;;;10.13;71.08;100206.78;30624434;28;96790;-60
2022/11/09 23:53:14;;;;;;;26.58;14.65;;;;;;;10.03;72.06;100216.75;30628042;28;97320;-60
